METAR rapporten vliegvelden

   
EBAW - Antwerp
Gewijzigd: 20-09-2019 14:50
Helder  
Helder  
   Wind: Oosten 16.7 km/h
Wind: Oosten 16.7 km/h
Temperatuur: 20°C
Dauwpunt: 2°C
Vochtigheid: 30%
Barometer: 1027 hPa
Zicht: meer dan 10 km
Bewolking: Helder
EBAW 201250Z 10009KT 060V130 CAVOK 20/02 Q1027 NOSIG
EBLG - Li├Ęge
Gewijzigd: 20-09-2019 14:50
Helder  
Helder  
   Wind: ONO 13 km/h
Wind: ONO 13 km/h
Temperatuur: 19°C
Dauwpunt: 2°C
Vochtigheid: 32%
Barometer: 1026 hPa
Zicht: meer dan 10 km
Bewolking: Helder
EBLG 201250Z 07007KT 030V130 CAVOK 19/02 Q1026 NOSIG
EBCV - Mons/Bergen
Gewijzigd: 20-09-2019 14:55
Helder  
Helder  
   Wind: Oosten 18.5 km/h
Wind: Oosten 18.5 km/h
Temperatuur: 20°C
Dauwpunt: 1°C
Vochtigheid: 28%
Barometer: 1025 hPa
Bewolking: Helder
Zicht: meer dan 10 km
Bewolking: Helder
EBCV 201255Z AUTO 08010KT 9999 NCD 20/01 Q1025 BLU
EHBK - Maastricht
Gewijzigd: 20-09-2019 14:55
Helder  
Helder  
   Wind: Oosten 16.7 km/h
Wind: Oosten 16.7 km/h
Temperatuur: 19°C
Dauwpunt: 2°C
Vochtigheid: 32%
Barometer: 1027 hPa
Bewolking: Helder
Zicht: meer dan 10 km
Bewolking: Helder
EHBK 201255Z AUTO 08009KT 020V120 9999 NCD 19/02 Q1027 NOSIG
ELLX - Luxemburg
Gewijzigd: 20-09-2019 14:50
Helder  
Helder  
   Wind: Oosten 13 km/h
Wind: Oosten 13 km/h
Temperatuur: 20°C
Dauwpunt: 1°C
Vochtigheid: 28%
Barometer: 1026 hPa
Zicht: meer dan 10 km
Bewolking: Helder
ELLX 201250Z 08007KT 020V150 CAVOK 20/01 Q1026 NOSIG
EBOS - Oostende
Gewijzigd: 20-09-2019 14:50
Helder  
Helder  
   Wind: Oosten 18.5 km/h
Wind: Oosten 18.5 km/h
Temperatuur: 20°C
Dauwpunt: 3°C
Vochtigheid: 33%
Barometer: 1026 hPa
Zicht: meer dan 10 km
Bewolking: Helder
EBOS 201250Z 08010KT 060V120 CAVOK 20/03 Q1026 NOSIG

Script ontwikkeld door  Saratoga-weather.org Aangepast voor de template door  Weerstation Leuven